Time;durP1;ratioP1;P1;durP2;ratioP2;P2;SDS_P1;SDS_P2;PMS_P1;PMS_P2;Temp;Humidity;BMP_temperature;BMP_pressure;BME280_temperature;BME280_humidity;BME280_pressure;Samples;Min_cycle;Max_cycle;Signal;HPM_P1;HPM_P2
2023/10/28 00:00:05;;;;;;;12.32;3.47;;;;;;;;;;5083921;28;20490;-71
2023/10/28 00:02:36;;;;;;;17.42;4.00;;;;;;;;;;5083339;28;20526;-71
2023/10/28 00:05:06;;;;;;;13.75;3.25;;;;;;;;;;5083822;28;20817;-74
2023/10/28 00:07:37;;;;;;;16.73;3.60;;;;;;;;;;5083892;28;20054;-74
2023/10/28 00:10:09;;;;;;;9.18;2.55;;;;;;;;;;5083914;28;20398;-73
2023/10/28 00:12:40;;;;;;;16.80;4.63;;;;;;;;;;5084222;28;20052;-74
2023/10/28 00:15:13;;;;;;;10.63;4.10;;;;;;;;;;5083633;28;20052;-73
2023/10/28 00:17:46;;;;;;;9.02;4.78;;;;;;;;;;5084534;28;20047;-73
2023/10/28 00:20:19;;;;;;;11.80;4.43;;;;;;;;;;5083623;28;20047;-73
2023/10/28 00:22:53;;;;;;;10.13;2.90;;;;;;;;;;5083550;28;20403;-74
2023/10/28 00:25:34;;;;;;;12.32;3.50;;;;;;;;;;5083082;28;20048;-74
2023/10/28 00:28:04;;;;;;;14.95;4.00;;;;;;;;;;5083306;28;20491;-74
2023/10/28 00:30:39;;;;;;;9.25;3.22;;;;;;;;;;5082819;28;20415;-76
2023/10/28 00:33:10;;;;;;;;;;;;;;;;;;5081684;28;20518;-75
2023/10/28 00:35:42;;;;;;;10.60;4.30;;;;;;;;;;5080775;28;19939;-73
2023/10/28 00:38:12;;;;;;;11.38;4.63;;;;;;;;;;5080653;28;20060;-73
2023/10/28 00:40:43;;;;;;;20.63;8.50;;;;;;;;;;5083060;28;20071;-73
2023/10/28 00:43:28;;;;;;;19.80;8.15;;;;;;;;;;5082479;28;20701;-72
2023/10/28 00:45:59;;;;;;;12.88;6.60;;;;;;;;;;5081686;28;20052;-73
2023/10/28 00:48:31;;;;;;;20.67;6.65;;;;;;;;;;5082819;28;20048;-72
2023/10/28 00:51:02;;;;;;;15.30;5.70;;;;;;;;;;5078298;28;20048;-71
2023/10/28 00:53:33;;;;;;;16.48;5.72;;;;;;;;;;5082895;28;20048;-73
2023/10/28 00:56:05;;;;;;;14.65;5.15;;;;;;;;;;5082368;28;20502;-70
2023/10/28 00:58:37;;;;;;;11.80;4.45;;;;;;;;;;5083021;28;20443;-71
2023/10/28 01:01:10;;;;;;;13.27;4.78;;;;;;;;;;5063755;28;20059;-72
2023/10/28 01:03:41;;;;;;;11.45;4.10;;;;;;;;;;5082697;28;20094;-70
2023/10/28 01:06:12;;;;;;;15.32;5.05;;;;;;;;;;5083431;28;20048;-73
2023/10/28 01:08:42;;;;;;;10.23;4.03;;;;;;;;;;5083523;28;20418;-72
2023/10/28 01:11:14;;;;;;;10.07;4.10;;;;;;;;;;5082992;28;20833;-73
2023/10/28 01:13:46;;;;;;;10.18;3.97;;;;;;;;;;5082007;28;20040;-71
2023/10/28 01:16:18;;;;;;;11.05;4.15;;;;;;;;;;5082318;28;20044;-72
2023/10/28 01:18:55;;;;;;;14.82;4.78;;;;;;;;;;5081038;28;20043;-71
2023/10/28 01:21:27;;;;;;;14.95;6.53;;;;;;;;;;5082137;28;20051;-72
2023/10/28 01:23:58;;;;;;;16.52;5.13;;;;;;;;;;5081903;28;20525;-73
2023/10/28 01:26:29;;;;;;;14.32;5.25;;;;;;;;;;5082442;28;20054;-73
2023/10/28 01:29:00;;;;;;;13.95;4.88;;;;;;;;;;5081191;28;20051;-71
2023/10/28 01:31:31;;;;;;;9.85;4.13;;;;;;;;;;5080230;28;20383;-70
2023/10/28 01:34:03;;;;;;;13.82;3.88;;;;;;;;;;5081042;28;20406;-73
2023/10/28 01:36:34;;;;;;;8.38;4.00;;;;;;;;;;5080774;28;20059;-72
2023/10/28 01:39:04;;;;;;;6.22;3.13;;;;;;;;;;5079762;28;20414;-73
2023/10/28 01:41:34;;;;;;;12.95;4.30;;;;;;;;;;5082370;28;20410;-71
2023/10/28 01:44:06;;;;;;;11.55;4.18;;;;;;;;;;5082253;28;20048;-71
2023/10/28 01:46:38;;;;;;;11.02;3.75;;;;;;;;;;5080531;28;20048;-71
2023/10/28 01:49:10;;;;;;;13.55;3.90;;;;;;;;;;5079721;28;20060;-71
2023/10/28 01:51:40;;;;;;;11.82;3.92;;;;;;;;;;5081906;28;20514;-73
2023/10/28 01:54:11;;;;;;;8.93;4.00;;;;;;;;;;5079702;28;20051;-72
2023/10/28 01:56:43;;;;;;;13.85;4.03;;;;;;;;;;5082069;28;20506;-72
2023/10/28 01:59:14;;;;;;;8.73;3.72;;;;;;;;;;5079295;28;20056;-73
2023/10/28 02:01:44;;;;;;;8.07;4.00;;;;;;;;;;5079243;28;20059;-77
2023/10/28 02:04:15;;;;;;;6.47;3.42;;;;;;;;;;5081929;28;20048;-73
2023/10/28 02:06:45;;;;;;;8.65;4.15;;;;;;;;;;5082578;28;20040;-72
2023/10/28 02:09:15;;;;;;;9.82;4.00;;;;;;;;;;5081544;28;20048;-71
2023/10/28 02:11:45;;;;;;;7.57;3.65;;;;;;;;;;5082072;28;20533;-72
2023/10/28 02:14:16;;;;;;;6.85;3.30;;;;;;;;;;5082114;28;20498;-72
2023/10/28 02:16:47;;;;;;;9.93;4.00;;;;;;;;;;5081919;28;20747;-74
2023/10/28 02:19:20;;;;;;;8.75;4.03;;;;;;;;;;5081865;28;20056;-74
2023/10/28 02:21:50;;;;;;;11.68;3.53;;;;;;;;;;5079776;28;20075;-74
2023/10/28 02:24:42;;;;;;;6.55;3.38;;;;;;;;;;5080389;28;20055;-73
2023/10/28 02:27:13;;;;;;;9.15;3.55;;;;;;;;;;5081649;28;20418;-72
2023/10/28 02:29:44;;;;;;;5.88;3.53;;;;;;;;;;5079327;28;20055;-74
2023/10/28 02:32:15;;;;;;;8.77;3.60;;;;;;;;;;5081876;28;20044;-72
2023/10/28 02:34:46;;;;;;;8.20;3.10;;;;;;;;;;5081613;28;20044;-73
2023/10/28 02:37:17;;;;;;;6.97;3.60;;;;;;;;;;5081497;28;20052;-74
2023/10/28 02:39:47;;;;;;;10.27;3.83;;;;;;;;;;5079681;28;20044;-73
2023/10/28 02:42:20;;;;;;;6.03;3.40;;;;;;;;;;5081521;28;20055;-71
2023/10/28 02:44:51;;;;;;;9.45;3.83;;;;;;;;;;5079475;28;20052;-72
2023/10/28 02:47:23;;;;;;;8.05;3.55;;;;;;;;;;5079831;28;20052;-73
2023/10/28 02:49:54;;;;;;;8.40;3.67;;;;;;;;;;5083390;28;20044;-73
2023/10/28 02:52:24;;;;;;;5.65;2.95;;;;;;;;;;5085116;28;20056;-73
2023/10/28 02:54:54;;;;;;;9.70;3.33;;;;;;;;;;5085077;28;20048;-74
2023/10/28 02:57:27;;;;;;;8.27;3.67;;;;;;;;;;5084958;28;20529;-72
2023/10/28 02:59:58;;;;;;;9.32;3.50;;;;;;;;;;5084857;28;20047;-74
2023/10/28 03:02:27;;;;;;;8.88;3.30;;;;;;;;;;5085275;28;20052;-74
2023/10/28 03:04:58;;;;;;;7.65;3.00;;;;;;;;;;5084094;28;20063;-73
2023/10/28 03:07:29;;;;;;;5.95;2.95;;;;;;;;;;5084848;28;20063;-73
2023/10/28 03:10:00;;;;;;;8.38;3.33;;;;;;;;;;5083297;28;20058;-74
2023/10/28 03:12:31;;;;;;;7.05;3.13;;;;;;;;;;5084366;28;20048;-74
2023/10/28 03:15:01;;;;;;;8.52;3.47;;;;;;;;;;5085008;28;20044;-74
2023/10/28 03:17:32;;;;;;;6.38;3.20;;;;;;;;;;5084551;28;20048;-74
2023/10/28 03:20:05;;;;;;;8.35;3.15;;;;;;;;;;5085380;28;20051;-74
2023/10/28 03:22:36;;;;;;;10.82;2.80;;;;;;;;;;5084377;28;20051;-72
2023/10/28 03:25:08;;;;;;;5.40;3.08;;;;;;;;;;5084773;28;20070;-72
2023/10/28 03:27:39;;;;;;;8.13;2.85;;;;;;;;;;5084188;28;20059;-73
2023/10/28 03:30:11;;;;;;;4.55;2.88;;;;;;;;;;5084397;28;20719;-73
2023/10/28 03:32:42;;;;;;;11.07;3.67;;;;;;;;;;5084568;28;20051;-74
2023/10/28 03:35:12;;;;;;;5.72;3.35;;;;;;;;;;5084558;28;20052;-75
2023/10/28 03:37:44;;;;;;;7.82;2.45;;;;;;;;;;5085071;28;20407;-74
2023/10/28 03:40:14;;;;;;;8.23;3.40;;;;;;;;;;5084353;28;20052;-72
2023/10/28 03:42:46;;;;;;;6.20;2.67;;;;;;;;;;5083859;28;20059;-73
2023/10/28 03:45:17;;;;;;;6.00;3.03;;;;;;;;;;5083944;28;20039;-73
2023/10/28 03:47:48;;;;;;;3.95;2.78;;;;;;;;;;5084110;28;20044;-72
2023/10/28 03:50:20;;;;;;;5.30;3.25;;;;;;;;;;5084380;28;20051;-72
2023/10/28 03:52:50;;;;;;;6.47;3.17;;;;;;;;;;5083998;28;20059;-74
2023/10/28 03:55:21;;;;;;;4.15;2.60;;;;;;;;;;5084180;28;20506;-74
2023/10/28 03:57:53;;;;;;;6.00;2.80;;;;;;;;;;5084156;28;20044;-72
2023/10/28 04:00:24;;;;;;;4.32;2.65;;;;;;;;;;5080893;28;20545;-74
2023/10/28 04:02:55;;;;;;;5.10;2.78;;;;;;;;;;5083398;28;20059;-73
2023/10/28 04:05:26;;;;;;;4.65;2.65;;;;;;;;;;5082544;28;20052;-73
2023/10/28 04:07:57;;;;;;;7.53;2.90;;;;;;;;;;5083312;28;20055;-73
2023/10/28 04:10:28;;;;;;;6.05;3.00;;;;;;;;;;5083915;28;20040;-71
2023/10/28 04:12:58;;;;;;;5.78;2.60;;;;;;;;;;5083275;28;20044;-74
2023/10/28 04:15:29;;;;;;;9.48;2.58;;;;;;;;;;5083734;28;20048;-71
2023/10/28 04:18:01;;;;;;;6.25;3.08;;;;;;;;;;5083189;28;20044;-72
2023/10/28 04:20:33;;;;;;;10.20;2.67;;;;;;;;;;5083299;28;20040;-73
2023/10/28 04:23:05;;;;;;;7.88;3.15;;;;;;;;;;5083359;28;20044;-74
2023/10/28 04:25:37;;;;;;;6.57;2.53;;;;;;;;;;5083766;28;20054;-74
2023/10/28 04:28:07;;;;;;;8.70;2.95;;;;;;;;;;5083739;28;20079;-73
2023/10/28 04:30:38;;;;;;;9.90;2.85;;;;;;;;;;5083166;28;20059;-72
2023/10/28 04:33:08;;;;;;;5.60;2.70;;;;;;;;;;5083330;28;20048;-73
2023/10/28 04:35:43;;;;;;;5.38;2.58;;;;;;;;;;5081571;28;20052;-72
2023/10/28 04:38:13;;;;;;;5.97;2.75;;;;;;;;;;5083112;28;20525;-74
2023/10/28 04:40:43;;;;;;;7.65;2.45;;;;;;;;;;5082615;28;20048;-74
2023/10/28 04:43:14;;;;;;;4.85;2.53;;;;;;;;;;5082873;28;20686;-73
2023/10/28 04:45:45;;;;;;;3.60;2.38;;;;;;;;;;5081115;28;20047;-73
2023/10/28 04:48:16;;;;;;;4.50;2.47;;;;;;;;;;5082604;28;20055;-72
2023/10/28 04:50:47;;;;;;;5.38;2.60;;;;;;;;;;5082836;28;20059;-73
2023/10/28 04:53:18;;;;;;;8.98;2.85;;;;;;;;;;5082884;28;20048;-72
2023/10/28 04:55:49;;;;;;;5.28;2.47;;;;;;;;;;5083068;28;20036;-73
2023/10/28 04:58:19;;;;;;;8.43;3.47;;;;;;;;;;5083352;28;20051;-71
2023/10/28 05:00:50;;;;;;;6.15;2.80;;;;;;;;;;5082939;28;20415;-73
2023/10/28 05:03:20;;;;;;;5.78;2.70;;;;;;;;;;5083347;28;20063;-73
2023/10/28 05:05:51;;;;;;;5.28;2.13;;;;;;;;;;5082599;28;20051;-72
2023/10/28 05:08:22;;;;;;;6.25;2.83;;;;;;;;;;5082210;28;20601;-73
2023/10/28 05:10:53;;;;;;;8.20;2.97;;;;;;;;;;5082139;28;20051;-73
2023/10/28 05:13:23;;;;;;;6.97;2.95;;;;;;;;;;5080945;28;20039;-71
2023/10/28 05:15:54;;;;;;;8.98;3.22;;;;;;;;;;5082844;28;20074;-72
2023/10/28 05:18:26;;;;;;;6.28;2.45;;;;;;;;;;5082668;28;20043;-72
2023/10/28 05:20:56;;;;;;;6.35;2.70;;;;;;;;;;5082120;28;20055;-73
2023/10/28 05:23:26;;;;;;;5.28;3.15;;;;;;;;;;5082065;28;20055;-71
2023/10/28 05:25:56;;;;;;;5.45;2.95;;;;;;;;;;5082112;28;20055;-73
2023/10/28 05:28:26;;;;;;;4.45;2.33;;;;;;;;;;5082541;28;20067;-71
2023/10/28 05:30:57;;;;;;;6.65;2.40;;;;;;;;;;5082837;28;20048;-73
2023/10/28 05:33:27;;;;;;;8.68;2.60;;;;;;;;;;5081187;28;20698;-72
2023/10/28 05:35:57;;;;;;;3.47;2.33;;;;;;;;;;5082833;28;20036;-73
2023/10/28 05:38:27;;;;;;;4.90;2.20;;;;;;;;;;5081998;28;20036;-71
2023/10/28 05:40:59;;;;;;;4.25;2.55;;;;;;;;;;5082414;28;20044;-72
2023/10/28 05:43:31;;;;;;;2.90;2.03;;;;;;;;;;5081951;28;20570;-72
2023/10/28 05:46:02;;;;;;;4.93;2.10;;;;;;;;;;5081739;28;20399;-73
2023/10/28 05:48:33;;;;;;;4.20;2.15;;;;;;;;;;5080148;28;20052;-73
2023/10/28 05:51:05;;;;;;;4.03;2.00;;;;;;;;;;5082184;28;20059;-73
2023/10/28 05:53:36;;;;;;;5.15;2.30;;;;;;;;;;5081671;28;20537;-73
2023/10/28 05:56:06;;;;;;;4.63;2.10;;;;;;;;;;5081671;28;20048;-73
2023/10/28 05:58:37;;;;;;;4.55;2.00;;;;;;;;;;5080761;28;20052;-72
2023/10/28 06:01:08;;;;;;;4.97;1.73;;;;;;;;;;5082664;28;20044;-71
2023/10/28 06:03:39;;;;;;;3.40;1.65;;;;;;;;;;5080867;28;20453;-73
2023/10/28 06:06:09;;;;;;;2.53;1.50;;;;;;;;;;5081953;28;20052;-72
2023/10/28 06:08:39;;;;;;;3.60;1.77;;;;;;;;;;5081695;28;20048;-72
2023/10/28 06:11:10;;;;;;;3.30;1.70;;;;;;;;;;5081944;28;20450;-73
2023/10/28 06:13:42;;;;;;;3.10;1.88;;;;;;;;;;5081553;28;20052;-73
2023/10/28 06:16:13;;;;;;;2.95;1.90;;;;;;;;;;5081024;28;20056;-73
2023/10/28 06:18:43;;;;;;;3.53;2.25;;;;;;;;;;5082065;28;20039;-73
2023/10/28 06:21:17;;;;;;;2.38;1.67;;;;;;;;;;5081904;28;20040;-74
2023/10/28 06:23:48;;;;;;;4.38;1.88;;;;;;;;;;5081588;28;20756;-73
2023/10/28 06:26:19;;;;;;;3.95;1.85;;;;;;;;;;5085771;28;20533;-73
2023/10/28 06:28:50;;;;;;;3.78;2.00;;;;;;;;;;5085446;28;20060;-72
2023/10/28 06:31:20;;;;;;;4.32;2.00;;;;;;;;;;5085279;28;20052;-72
2023/10/28 06:33:52;;;;;;;4.15;1.63;;;;;;;;;;5085705;28;20414;-73
2023/10/28 06:36:22;;;;;;;2.75;1.85;;;;;;;;;;5085755;28;20051;-71
2023/10/28 06:38:55;;;;;;;4.57;1.92;;;;;;;;;;5085164;28;20043;-73
2023/10/28 06:41:26;;;;;;;3.08;1.70;;;;;;;;;;5085333;28;20044;-71
2023/10/28 06:44:02;;;;;;;3.45;2.33;;;;;;;;;;5085630;28;20052;-73
2023/10/28 06:46:34;;;;;;;3.30;1.73;;;;;;;;;;5085370;28;20054;-72
2023/10/28 06:49:08;;;;;;;6.30;1.75;;;;;;;;;;5083648;28;20059;-72
2023/10/28 06:51:38;;;;;;;3.03;1.70;;;;;;;;;;5085007;28;20055;-74
2023/10/28 06:54:10;;;;;;;4.78;1.83;;;;;;;;;;5085160;28;20745;-73
2023/10/28 06:56:41;;;;;;;2.58;1.70;;;;;;;;;;5084716;28;20495;-73
2023/10/28 06:59:12;;;;;;;4.32;1.80;;;;;;;;;;5084726;28;20056;-72
2023/10/28 07:01:42;;;;;;;4.00;1.60;;;;;;;;;;5085447;28;20059;-73
2023/10/28 07:04:13;;;;;;;2.28;1.40;;;;;;;;;;5085074;28;20114;-71
2023/10/28 07:06:44;;;;;;;1.90;1.55;;;;;;;;;;5085245;28;20047;-72
2023/10/28 07:09:15;;;;;;;2.47;1.48;;;;;;;;;;5085704;28;20051;-73
2023/10/28 07:11:48;;;;;;;6.75;1.90;;;;;;;;;;5084634;28;20040;-74
2023/10/28 07:14:19;;;;;;;5.97;1.80;;;;;;;;;;5084957;28;20059;-73
2023/10/28 07:16:49;;;;;;;4.22;1.65;;;;;;;;;;5084645;28;20525;-73
2023/10/28 07:19:21;;;;;;;3.25;1.75;;;;;;;;;;5084787;28;20044;-73
2023/10/28 07:21:51;;;;;;;4.40;1.50;;;;;;;;;;5084041;28;20383;-73
2023/10/28 07:24:22;;;;;;;4.47;1.40;;;;;;;;;;5084430;28;20391;-72
2023/10/28 07:26:52;;;;;;;4.63;1.75;;;;;;;;;;5084599;28;20516;-71
2023/10/28 07:29:25;;;;;;;2.78;1.38;;;;;;;;;;5084881;28;20375;-73
2023/10/28 07:31:57;;;;;;;2.95;1.60;;;;;;;;;;5085349;28;20067;-72
2023/10/28 07:34:29;;;;;;;3.03;1.30;;;;;;;;;;5082887;28;20494;-73
2023/10/28 07:37:01;;;;;;;3.63;1.92;;;;;;;;;;5083982;28;20055;-73
2023/10/28 07:39:31;;;;;;;1.83;1.10;;;;;;;;;;5084337;28;20498;-74
2023/10/28 07:42:02;;;;;;;6.05;1.73;;;;;;;;;;5083995;28;20048;-74
2023/10/28 07:44:33;;;;;;;2.35;1.50;;;;;;;;;;5084279;28;20652;-73
2023/10/28 07:47:03;;;;;;;2.67;1.52;;;;;;;;;;5083812;28;20059;-70
2023/10/28 07:49:34;;;;;;;2.95;1.60;;;;;;;;;;5081827;28;20060;-72
2023/10/28 07:52:07;;;;;;;2.30;1.58;;;;;;;;;;5084310;28;20063;-73
2023/10/28 07:54:38;;;;;;;8.85;2.08;;;;;;;;;;5084033;28;20044;-73
2023/10/28 07:57:08;;;;;;;3.40;1.60;;;;;;;;;;5084366;28;20378;-73
2023/10/28 07:59:39;;;;;;;3.20;1.65;;;;;;;;;;5084897;28;20055;-74
2023/10/28 08:02:10;;;;;;;5.55;1.80;;;;;;;;;;5084766;28;20407;-71
2023/10/28 08:04:41;;;;;;;4.25;1.58;;;;;;;;;;5083791;28;20051;-71
2023/10/28 08:07:14;;;;;;;2.70;1.35;;;;;;;;;;5081669;28;20078;-74
2023/10/28 08:09:45;;;;;;;9.30;1.90;;;;;;;;;;5083600;28;20048;-74
2023/10/28 08:12:16;;;;;;;3.42;1.83;;;;;;;;;;5083663;28;20051;-73
2023/10/28 08:14:48;;;;;;;3.33;1.40;;;;;;;;;;5083468;28;20044;-72
2023/10/28 08:17:19;;;;;;;2.80;1.95;;;;;;;;;;5083861;28;20044;-73
2023/10/28 08:19:50;;;;;;;5.45;1.83;;;;;;;;;;5083050;28;20044;-73
2023/10/28 08:22:20;;;;;;;3.08;1.80;;;;;;;;;;5083263;28;20448;-72
2023/10/28 08:24:50;;;;;;;3.20;1.60;;;;;;;;;;5082964;28;20051;-73
2023/10/28 08:27:20;;;;;;;3.05;1.65;;;;;;;;;;5083763;28;20052;-73
2023/10/28 08:29:51;;;;;;;2.92;1.80;;;;;;;;;;5083837;28;20047;-72
2023/10/28 08:32:21;;;;;;;4.78;1.67;;;;;;;;;;5083657;28;20051;-73
2023/10/28 08:34:54;;;;;;;4.13;2.38;;;;;;;;;;5083507;28;20151;-73
2023/10/28 08:37:25;;;;;;;2.53;1.60;;;;;;;;;;5083046;28;20403;-73
2023/10/28 08:39:57;;;;;;;8.20;1.92;;;;;;;;;;5082946;28;20051;-72
2023/10/28 08:42:28;;;;;;;4.53;1.88;;;;;;;;;;5084203;28;20050;-75
2023/10/28 08:45:01;;;;;;;7.80;2.30;;;;;;;;;;5083001;28;20052;-74
2023/10/28 08:47:38;;;;;;;5.35;1.85;;;;;;;;;;5082537;28;20050;-73
2023/10/28 08:50:10;;;;;;;2.97;1.67;;;;;;;;;;5083340;28;20736;-73
2023/10/28 08:52:42;;;;;;;5.15;1.80;;;;;;;;;;5083116;28;20498;-74
2023/10/28 08:55:14;;;;;;;8.60;1.95;;;;;;;;;;5083353;28;20059;-73
2023/10/28 08:57:46;;;;;;;3.03;1.85;;;;;;;;;;5083411;28;20048;-73
2023/10/28 09:00:23;;;;;;;3.70;1.98;;;;;;;;;;5082184;28;20047;-71
2023/10/28 09:02:56;;;;;;;4.80;1.98;;;;;;;;;;5082691;28;20055;-73
2023/10/28 09:05:28;;;;;;;2.22;1.60;;;;;;;;;;5083183;28;20048;-72
2023/10/28 09:07:58;;;;;;;4.25;2.08;;;;;;;;;;5083277;28;20044;-72
2023/10/28 09:10:29;;;;;;;9.35;2.17;;;;;;;;;;5083295;28;20039;-75
2023/10/28 09:13:06;;;;;;;7.45;2.38;;;;;;;;;;5082174;28;21041;-74
2023/10/28 09:15:37;;;;;;;4.72;2.13;;;;;;;;;;5082454;28;20051;-73
2023/10/28 09:18:11;;;;;;;8.57;3.67;;;;;;;;;;5082548;28;20047;-74
2023/10/28 09:20:42;;;;;;;6.97;3.03;;;;;;;;;;5083451;28;20043;-74
2023/10/28 09:23:14;;;;;;;3.17;1.98;;;;;;;;;;5080910;28;20052;-73
2023/10/28 09:25:44;;;;;;;6.93;2.60;;;;;;;;;;5082698;28;20051;-74
2023/10/28 09:28:17;;;;;;;7.38;2.53;;;;;;;;;;5081800;28;20060;-74
2023/10/28 09:30:48;;;;;;;3.25;2.13;;;;;;;;;;5082331;28;20052;-73
2023/10/28 09:33:19;;;;;;;4.38;1.92;;;;;;;;;;5081972;28;20040;-72
2023/10/28 09:35:56;;;;;;;3.78;2.25;;;;;;;;;;5081890;28;20065;-72
2023/10/28 09:38:27;;;;;;;2.90;1.88;;;;;;;;;;5082778;28;20044;-73
2023/10/28 09:41:01;;;;;;;5.60;2.17;;;;;;;;;;5082048;28;20071;-73
2023/10/28 09:43:32;;;;;;;9.38;3.17;;;;;;;;;;5081847;28;20052;-74
2023/10/28 09:46:05;;;;;;;5.40;1.90;;;;;;;;;;5081803;28;20094;-71
2023/10/28 09:48:39;;;;;;;4.97;2.25;;;;;;;;;;5081972;28;20052;-73
2023/10/28 09:51:11;;;;;;;3.22;2.00;;;;;;;;;;5082648;28;20052;-73
2023/10/28 09:53:43;;;;;;;3.50;2.00;;;;;;;;;;5081106;28;20044;-74
2023/10/28 09:56:15;;;;;;;6.65;2.35;;;;;;;;;;5082175;28;20109;-72
2023/10/28 09:58:55;;;;;;;4.82;2.22;;;;;;;;;;5081142;28;20052;-72
2023/10/28 10:01:44;;;;;;;3.97;2.33;;;;;;;;;;5086395;28;20530;-72
2023/10/28 10:04:55;;;;;;;6.78;2.08;;;;;;;;;;5086275;28;20063;-74
2023/10/28 10:07:26;;;;;;;4.72;2.10;;;;;;;;;;5085958;28;20051;-74
2023/10/28 10:10:10;;;;;;;3.00;2.08;;;;;;;;;;5083977;28;20059;-75
2023/10/28 10:12:41;;;;;;;6.90;2.03;;;;;;;;;;5085972;28;20051;-74
2023/10/28 10:15:19;;;;;;;5.53;2.30;;;;;;;;;;5085436;28;20047;-74
2023/10/28 10:18:11;;;;;;;3.53;2.15;;;;;;;;;;5085837;28;20051;-74
2023/10/28 10:20:44;;;;;;;4.45;2.10;;;;;;;;;;5085828;28;20142;-74
2023/10/28 10:23:16;;;;;;;4.18;2.10;;;;;;;;;;5086645;28;20051;-72
2023/10/28 10:25:47;;;;;;;4.97;2.30;;;;;;;;;;5085456;28;20044;-74
2023/10/28 10:28:23;;;;;;;12.02;2.33;;;;;;;;;;5085933;28;20075;-73
2023/10/28 10:30:56;;;;;;;;;;;;;;;;;;5085601;28;20059;-70
2023/10/28 10:33:28;;;;;;;5.00;2.00;;;;;;;;;;5085521;28;19924;-74
2023/10/28 10:35:59;;;;;;;5.68;2.38;;;;;;;;;;5086031;28;20051;-73
2023/10/28 10:38:31;;;;;;;6.40;2.45;;;;;;;;;;5084884;28;20519;-74
2023/10/28 10:41:02;;;;;;;8.52;2.53;;;;;;;;;;5084462;28;20483;-74
2023/10/28 10:43:33;;;;;;;6.43;2.28;;;;;;;;;;5085450;28;20071;-76
2023/10/28 10:46:03;;;;;;;4.30;2.67;;;;;;;;;;5084965;28;20442;-78
2023/10/28 10:48:34;;;;;;;8.10;2.65;;;;;;;;;;5085003;28;20759;-71
2023/10/28 10:51:04;;;;;;;4.45;2.30;;;;;;;;;;5085421;28;20052;-73
2023/10/28 10:53:42;;;;;;;5.13;2.53;;;;;;;;;;5085346;28;20416;-74
2023/10/28 10:56:21;;;;;;;5.55;2.50;;;;;;;;;;5084978;28;20414;-74
2023/10/28 10:58:52;;;;;;;5.55;2.58;;;;;;;;;;5085245;28;20510;-73
2023/10/28 11:01:25;;;;;;;13.10;3.00;;;;;;;;;;5084878;28;20048;-74
2023/10/28 11:03:57;;;;;;;17.42;2.88;;;;;;;;;;5084776;28;20063;-74
2023/10/28 11:06:28;;;;;;;12.80;2.42;;;;;;;;;;5085027;28;20039;-74
2023/10/28 11:09:03;;;;;;;6.40;2.58;;;;;;;;;;5085661;28;20043;-72
2023/10/28 11:11:38;;;;;;;11.82;2.78;;;;;;;;;;5084391;28;20047;-76
2023/10/28 11:14:08;;;;;;;8.68;2.67;;;;;;;;;;5083905;28;20043;-76
2023/10/28 11:16:41;;;;;;;8.50;2.40;;;;;;;;;;5085533;28;20044;-73
2023/10/28 11:19:12;;;;;;;11.27;2.28;;;;;;;;;;5084147;28;20387;-74
2023/10/28 11:21:42;;;;;;;8.35;2.88;;;;;;;;;;5084393;28;20427;-74
2023/10/28 11:24:13;;;;;;;6.22;2.47;;;;;;;;;;5084222;28;20056;-72
2023/10/28 11:26:48;;;;;;;10.05;2.78;;;;;;;;;;5084240;28;20063;-73
2023/10/28 11:29:19;;;;;;;6.32;2.63;;;;;;;;;;5083196;28;20044;-75
2023/10/28 11:31:50;;;;;;;9.65;3.15;;;;;;;;;;5084488;28;20040;-78
2023/10/28 11:34:20;;;;;;;8.15;3.15;;;;;;;;;;5084371;28;20047;-78
2023/10/28 11:36:53;;;;;;;16.17;2.70;;;;;;;;;;5082745;28;20054;-74
2023/10/28 11:39:24;;;;;;;9.20;3.45;;;;;;;;;;5084513;28;20411;-73
2023/10/28 11:41:56;;;;;;;9.07;2.92;;;;;;;;;;5084678;28;20052;-74
2023/10/28 11:44:27;;;;;;;9.50;2.65;;;;;;;;;;5084942;28;20055;-75
2023/10/28 11:46:58;;;;;;;15.02;3.58;;;;;;;;;;5084187;28;20055;-72
2023/10/28 11:49:29;;;;;;;16.10;3.00;;;;;;;;;;5084783;28;20055;-72
2023/10/28 11:52:00;;;;;;;11.38;3.40;;;;;;;;;;5084515;28;20044;-73
2023/10/28 11:54:30;;;;;;;7.07;3.22;;;;;;;;;;5084440;28;20509;-74
2023/10/28 11:57:02;;;;;;;10.82;3.47;;;;;;;;;;5083897;28;20067;-74
2023/10/28 11:59:33;;;;;;;8.27;3.05;;;;;;;;;;5084012;28;20495;-72
2023/10/28 12:02:03;;;;;;;13.38;3.20;;;;;;;;;;5084208;28;20050;-72
2023/10/28 12:04:34;;;;;;;12.15;3.08;;;;;;;;;;5083894;28;20109;-72
2023/10/28 12:07:05;;;;;;;10.95;3.17;;;;;;;;;;5083635;28;20122;-78
2023/10/28 12:09:37;;;;;;;10.10;2.85;;;;;;;;;;5083798;28;20054;-73
2023/10/28 12:12:09;;;;;;;11.68;2.92;;;;;;;;;;5083033;28;20052;-79
2023/10/28 12:14:39;;;;;;;7.78;2.80;;;;;;;;;;5083479;28;20491;-74
2023/10/28 12:17:11;;;;;;;12.48;2.95;;;;;;;;;;5083611;28;21012;-73
2023/10/28 12:19:42;;;;;;;13.55;3.28;;;;;;;;;;5082767;28;20071;-75
2023/10/28 12:22:14;;;;;;;9.57;2.55;;;;;;;;;;5083135;28;20055;-72
2023/10/28 12:24:44;;;;;;;4.95;2.47;;;;;;;;;;5083270;28;20056;-74
2023/10/28 12:27:16;;;;;;;10.57;2.45;;;;;;;;;;5083646;28;20063;-76
2023/10/28 12:29:46;;;;;;;14.00;3.00;;;;;;;;;;5081371;28;20059;-72
2023/10/28 12:32:17;;;;;;;9.90;2.75;;;;;;;;;;5082890;28;20697;-79
2023/10/28 12:34:47;;;;;;;7.22;2.15;;;;;;;;;;5083109;28;20059;-73
2023/10/28 12:37:18;;;;;;;6.53;2.78;;;;;;;;;;5082806;28;20044;-85
2023/10/28 12:39:49;;;;;;;11.13;3.35;;;;;;;;;;5083808;28;20533;-74
2023/10/28 12:42:20;;;;;;;9.20;2.50;;;;;;;;;;5083120;28;20479;-77
2023/10/28 12:44:50;;;;;;;7.85;2.90;;;;;;;;;;5082568;28;20118;-74
2023/10/28 12:47:21;;;;;;;11.82;3.05;;;;;;;;;;5083158;28;20052;-73
2023/10/28 12:49:53;;;;;;;6.45;2.83;;;;;;;;;;5083500;28;20040;-76
2023/10/28 12:52:23;;;;;;;6.32;2.70;;;;;;;;;;5082815;28;20036;-72
2023/10/28 12:54:53;;;;;;;6.85;3.00;;;;;;;;;;5083164;28;20040;-72
2023/10/28 12:57:24;;;;;;;14.10;4.95;;;;;;;;;;5083065;28;20048;-73
2023/10/28 12:59:55;;;;;;;5.28;3.13;;;;;;;;;;5082511;28;20751;-73
2023/10/28 13:02:26;;;;;;;7.60;2.83;;;;;;;;;;5082738;28;20063;-74
2023/10/28 13:04:57;;;;;;;10.25;2.80;;;;;;;;;;5083048;28;20557;-75
2023/10/28 13:07:29;;;;;;;5.28;3.33;;;;;;;;;;5080942;28;20052;-74
2023/10/28 13:10:01;;;;;;;7.38;3.03;;;;;;;;;;5081200;28;20044;-77
2023/10/28 13:12:32;;;;;;;5.47;2.78;;;;;;;;;;5080422;28;20048;-75
2023/10/28 13:15:07;;;;;;;5.38;2.80;;;;;;;;;;5082681;28;20067;-75
2023/10/28 13:17:40;;;;;;;5.18;2.60;;;;;;;;;;5083174;28;20866;-73
2023/10/28 13:20:12;;;;;;;8.60;3.50;;;;;;;;;;5080229;28;20047;-72
2023/10/28 13:22:43;;;;;;;7.63;2.83;;;;;;;;;;5081863;28;20044;-76
2023/10/28 13:25:13;;;;;;;6.30;2.63;;;;;;;;;;5082278;28;20052;-75
2023/10/28 13:27:43;;;;;;;3.80;2.50;;;;;;;;;;5081888;28;20059;-74
2023/10/28 13:30:15;;;;;;;6.18;2.80;;;;;;;;;;5082388;28;20052;-73
2023/10/28 13:32:48;;;;;;;11.25;2.88;;;;;;;;;;5082133;28;20048;-75
2023/10/28 13:35:25;;;;;;;8.25;2.90;;;;;;;;;;5079894;28;20054;-74
2023/10/28 13:37:55;;;;;;;8.50;3.38;;;;;;;;;;5082395;28;20040;-80
2023/10/28 13:40:25;;;;;;;6.80;3.20;;;;;;;;;;5082327;28;20040;-73
2023/10/28 13:42:56;;;;;;;11.95;3.22;;;;;;;;;;5082685;28;20059;-78
2023/10/28 13:45:27;;;;;;;5.15;2.92;;;;;;;;;;5082589;28;20048;-73
2023/10/28 13:47:57;;;;;;;8.77;3.78;;;;;;;;;;5081811;28;20494;-74
2023/10/28 13:50:28;;;;;;;8.40;3.35;;;;;;;;;;5081684;28;20048;-73
2023/10/28 13:52:58;;;;;;;6.80;2.88;;;;;;;;;;5081795;28;20372;-74
2023/10/28 13:55:29;;;;;;;4.45;3.25;;;;;;;;;;5081253;28;20052;-73
2023/10/28 13:58:00;;;;;;;6.60;2.95;;;;;;;;;;5081627;28;20051;-77
2023/10/28 14:00:31;;;;;;;5.32;3.67;;;;;;;;;;5081895;28;20040;-74
2023/10/28 14:03:02;;;;;;;6.28;2.65;;;;;;;;;;5081172;28;20498;-74
2023/10/28 14:05:33;;;;;;;5.30;3.22;;;;;;;;;;5081494;28;20122;-73
2023/10/28 14:08:04;;;;;;;9.70;3.33;;;;;;;;;;5081423;28;20051;-73
2023/10/28 14:10:35;;;;;;;3.60;2.80;;;;;;;;;;5081508;28;20055;-73
2023/10/28 14:13:05;;;;;;;6.63;3.20;;;;;;;;;;5081838;28;20051;-74
2023/10/28 14:15:37;;;;;;;5.18;3.38;;;;;;;;;;5082741;28;20048;-74
2023/10/28 14:18:15;;;;;;;8.10;2.67;;;;;;;;;;5081924;28;20388;-78
2023/10/28 14:20:46;;;;;;;7.07;3.25;;;;;;;;;;5081450;28;20051;-74
2023/10/28 14:23:16;;;;;;;6.57;3.03;;;;;;;;;;5081956;28;20482;-77
2023/10/28 14:25:46;;;;;;;5.10;3.17;;;;;;;;;;5081251;28;20059;-75
2023/10/28 14:28:17;;;;;;;5.13;2.85;;;;;;;;;;5079481;28;20079;-73
2023/10/28 14:30:48;;;;;;;5.72;2.72;;;;;;;;;;5081906;28;20051;-74
2023/10/28 14:33:18;;;;;;;9.75;3.80;;;;;;;;;;5079774;28;20056;-74
2023/10/28 14:35:49;;;;;;;7.03;3.67;;;;;;;;;;5079751;28;20048;-74
2023/10/28 14:38:20;;;;;;;9.73;3.42;;;;;;;;;;5081015;28;20110;-75
2023/10/28 14:40:51;;;;;;;9.68;3.70;;;;;;;;;;5081779;28;20521;-74
2023/10/28 14:43:24;;;;;;;6.13;3.15;;;;;;;;;;5081866;28;20096;-75
2023/10/28 14:45:55;;;;;;;5.32;2.90;;;;;;;;;;5083921;28;20048;-74
2023/10/28 14:48:26;;;;;;;6.57;2.97;;;;;;;;;;5085206;28;20048;-75
2023/10/28 14:50:56;;;;;;;4.82;3.35;;;;;;;;;;5085356;28;20052;-75
2023/10/28 14:53:27;;;;;;;4.60;2.88;;;;;;;;;;5085741;28;20048;-73
2023/10/28 14:55:59;;;;;;;4.80;3.20;;;;;;;;;;5085279;28;20070;-72
2023/10/28 14:58:30;;;;;;;7.25;2.50;;;;;;;;;;5085105;28;20442;-80
2023/10/28 15:01:11;;;;;;;8.23;3.08;;;;;;;;;;5085134;28;20052;-75
2023/10/28 15:03:42;;;;;;;9.60;2.60;;;;;;;;;;5085172;28;20055;-73
2023/10/28 15:06:17;;;;;;;7.53;2.90;;;;;;;;;;5084847;28;20054;-74